Time;durP1;ratioP1;P1;durP2;ratioP2;P2;SDS_P1;SDS_P2;PMS_P1;PMS_P2;Temp;Humidity;BMP_temperature;BMP_pressure;BME280_temperature;BME280_humidity;BME280_pressure;Samples;Min_cycle;Max_cycle;Signal;HPM_P1;HPM_P2
2023/08/12 00:00:21;;;;;;;5.35;3.78;;;11.60;99.90;;;;;;5020851;28;20045;-65
2023/08/12 00:02:48;;;;;;;8.07;3.85;;;11.60;99.90;;;;;;5024875;28;20044;-63
2023/08/12 00:05:15;;;;;;;6.35;3.78;;;11.60;99.90;;;;;;5018373;28;20037;-63
2023/08/12 00:07:42;;;;;;;6.20;3.90;;;11.60;99.90;;;;;;5019519;28;20099;-65
2023/08/12 00:10:11;;;;;;;4.45;3.20;;;11.50;99.90;;;;;;5017886;28;20111;-62
2023/08/12 00:12:38;;;;;;;9.40;3.63;;;11.50;99.90;;;;;;5020574;28;20077;-62
2023/08/12 00:15:07;;;;;;;5.20;3.75;;;11.50;99.90;;;;;;5021540;28;20135;-63
2023/08/12 00:17:41;;;;;;;7.82;3.95;;;11.50;99.90;;;;;;5023570;28;20133;-64
2023/08/12 00:20:10;;;;;;;4.95;2.90;;;11.50;99.90;;;;;;5020514;28;20041;-62
2023/08/12 00:22:38;;;;;;;5.30;3.65;;;11.40;99.90;;;;;;5024758;28;20752;-67
2023/08/12 00:25:07;;;;;;;6.85;3.72;;;11.50;99.90;;;;;;5027266;28;20210;-62
2023/08/12 00:27:34;;;;;;;9.40;4.13;;;11.40;99.90;;;;;;5030397;28;20644;-64
2023/08/12 00:30:01;;;;;;;7.20;3.75;;;11.50;99.90;;;;;;5027815;28;20073;-65
2023/08/12 00:32:28;;;;;;;4.15;2.83;;;11.40;99.90;;;;;;5028404;28;20477;-65
2023/08/12 00:34:56;;;;;;;10.07;4.82;;;11.40;99.90;;;;;;5028683;28;20574;-68
2023/08/12 00:37:23;;;;;;;8.57;4.10;;;11.50;99.90;;;;;;5027259;28;20076;-65
2023/08/12 00:39:50;;;;;;;4.38;3.55;;;11.50;99.90;;;;;;5030271;28;20113;-62
2023/08/12 00:42:17;;;;;;;6.80;4.20;;;11.50;99.90;;;;;;5024576;28;20731;-68
2023/08/12 00:44:44;;;;;;;10.45;3.90;;;11.60;99.90;;;;;;5029486;28;20403;-63
2023/08/12 00:47:11;;;;;;;6.85;3.80;;;11.60;99.90;;;;;;5025022;28;20583;-65
2023/08/12 00:49:40;;;;;;;9.00;4.40;;;11.60;99.90;;;;;;5027190;28;20060;-63
2023/08/12 00:52:07;;;;;;;7.47;3.63;;;11.60;99.90;;;;;;5025834;28;20049;-64
2023/08/12 00:54:34;;;;;;;6.53;4.70;;;11.70;99.90;;;;;;5023401;28;20085;-65
2023/08/12 00:57:01;;;;;;;7.15;3.38;;;11.70;99.90;;;;;;5025840;28;20045;-67
2023/08/12 00:59:29;;;;;;;13.65;5.63;;;11.80;99.90;;;;;;5026346;28;20075;-66
2023/08/12 01:01:56;;;;;;;7.10;4.95;;;11.80;99.90;;;;;;5025000;28;20483;-70
2023/08/12 01:04:22;;;;;;;8.50;4.70;;;11.80;99.90;;;;;;5025996;28;20368;-67
2023/08/12 01:06:50;;;;;;;10.10;5.15;;;11.90;99.90;;;;;;5021020;28;20084;-64
2023/08/12 01:09:17;;;;;;;6.07;4.32;;;11.90;99.90;;;;;;5028056;28;20308;-64
2023/08/12 01:12:16;;;;;;;12.65;5.28;;;12.00;99.90;;;;;;5035410;28;20108;-66
2023/08/12 01:14:57;;;;;;;13.93;4.93;;;12.00;99.90;;;;;;5013896;28;20065;-62
2023/08/12 01:17:27;;;;;;;6.07;4.35;;;12.10;99.90;;;;;;5023860;28;20042;-63
2023/08/12 01:19:55;;;;;;;11.15;4.63;;;12.20;99.90;;;;;;5030050;28;20549;-66
2023/08/12 01:22:25;;;;;;;14.60;6.10;;;12.30;99.90;;;;;;5024991;28;20048;-64
2023/08/12 01:24:52;;;;;;;13.68;6.07;;;12.30;99.90;;;;;;5023383;28;20064;-65
2023/08/12 01:27:20;;;;;;;15.32;5.95;;;12.30;99.90;;;;;;5026255;28;20037;-67
2023/08/12 01:29:50;;;;;;;8.45;4.95;;;12.40;99.90;;;;;;5029616;28;20050;-62
2023/08/12 01:32:32;;;;;;;18.25;6.95;;;12.40;99.90;;;;;;5039194;28;20057;-63
2023/08/12 01:35:05;;;;;;;15.40;6.53;;;12.40;99.90;;;;;;5024836;28;20049;-67
2023/08/12 01:37:35;;;;;;;8.13;5.82;;;12.40;99.90;;;;;;5019246;28;20049;-66
2023/08/12 01:40:04;;;;;;;9.80;5.40;;;12.40;99.90;;;;;;5038918;28;20795;-63
2023/08/12 01:42:33;;;;;;;6.03;3.92;;;12.40;99.90;;;;;;5037148;28;20451;-65
2023/08/12 01:45:01;;;;;;;13.38;6.57;;;12.50;99.90;;;;;;5024956;28;20125;-65
2023/08/12 01:47:28;;;;;;;7.10;4.43;;;12.50;99.90;;;;;;5020788;28;20049;-66
2023/08/12 01:49:56;;;;;;;14.57;4.90;;;12.50;99.90;;;;;;5024809;28;20033;-62
2023/08/12 01:52:23;;;;;;;8.27;4.53;;;12.60;99.90;;;;;;5018642;28;20092;-62
2023/08/12 01:54:51;;;;;;;24.42;6.05;;;12.60;99.90;;;;;;5034190;28;20049;-64
2023/08/12 01:57:18;;;;;;;27.52;6.50;;;12.60;99.90;;;;;;5014180;28;20084;-62
2023/08/12 01:59:44;;;;;;;24.38;6.00;;;12.70;99.90;;;;;;5019470;28;20667;-64
2023/08/12 02:02:12;;;;;;;15.32;7.93;;;12.70;99.90;;;;;;5019403;28;20045;-65
2023/08/12 02:04:40;;;;;;;28.08;7.90;;;12.80;99.90;;;;;;5023841;28;20056;-65
2023/08/12 02:07:07;;;;;;;13.00;7.07;;;12.80;99.90;;;;;;5020931;28;20115;-64
2023/08/12 02:09:36;;;;;;;24.13;7.80;;;12.80;99.90;;;;;;5021685;28;20104;-65
2023/08/12 02:12:03;;;;;;;42.42;8.40;;;12.80;99.90;;;;;;5023561;28;20077;-69
2023/08/12 02:14:30;;;;;;;13.40;8.75;;;12.80;99.90;;;;;;5020755;28;20038;-68
2023/08/12 02:16:56;;;;;;;26.08;7.93;;;12.90;99.90;;;;;;5021618;28;20384;-67
2023/08/12 02:19:24;;;;;;;40.20;9.27;;;12.90;99.90;;;;;;5022153;28;20045;-63
2023/08/12 02:21:52;;;;;;;22.25;9.25;;;12.90;99.90;;;;;;5023250;28;20041;-62
2023/08/12 02:24:19;;;;;;;25.95;9.32;;;12.90;99.90;;;;;;5023648;28;20478;-65
2023/08/12 02:26:46;;;;;;;29.08;8.88;;;13.00;99.90;;;;;;5016093;28;20087;-62
2023/08/12 02:29:13;;;;;;;18.83;8.20;;;13.00;99.90;;;;;;5018855;28;20041;-62
2023/08/12 02:31:40;;;;;;;29.27;9.57;;;13.00;99.90;;;;;;5018610;28;20068;-63
2023/08/12 02:34:07;;;;;;;22.55;10.43;;;13.00;99.90;;;;;;5018998;28;20502;-65
2023/08/12 02:36:34;;;;;;;15.88;8.07;;;13.00;99.90;;;;;;5022391;28;20045;-66
2023/08/12 02:39:01;;;;;;;33.80;10.43;;;13.10;99.90;;;;;;5012980;28;20033;-67
2023/08/12 02:41:30;;;;;;;15.20;9.27;;;13.10;99.90;;;;;;5030143;28;20827;-62
2023/08/12 02:43:57;;;;;;;14.70;8.73;;;13.10;99.90;;;;;;5022422;28;20053;-62
2023/08/12 02:46:25;;;;;;;31.92;11.32;;;13.10;99.90;;;;;;5023342;28;20160;-64
2023/08/12 02:48:52;;;;;;;23.88;10.55;;;13.10;99.90;;;;;;5024796;28;20069;-64
2023/08/12 02:51:19;;;;;;;40.72;11.13;;;13.10;99.90;;;;;;5021507;28;20073;-67
2023/08/12 02:53:45;;;;;;;16.55;7.97;;;13.20;99.90;;;;;;5022896;28;20136;-64
2023/08/12 02:56:13;;;;;;;34.60;11.52;;;13.20;99.90;;;;;;5015648;28;20443;-64
2023/08/12 02:58:40;;;;;;;31.65;9.15;;;13.20;99.90;;;;;;5022097;28;20136;-67
2023/08/12 03:01:06;;;;;;;33.42;10.10;;;13.20;99.90;;;;;;5020620;28;20917;-68
2023/08/12 03:03:33;;;;;;;18.58;9.32;;;13.20;99.90;;;;;;5021321;28;20046;-63
2023/08/12 03:06:00;;;;;;;27.45;9.45;;;13.20;99.90;;;;;;5033222;28;20041;-66
2023/08/12 03:08:29;;;;;;;13.35;8.15;;;13.20;99.90;;;;;;5018111;28;20068;-66
2023/08/12 03:11:01;;;;;;;29.75;9.80;;;13.20;99.90;;;;;;5028999;28;20050;-65
2023/08/12 03:13:29;;;;;;;14.82;8.80;;;13.20;99.90;;;;;;5018599;28;20403;-62
2023/08/12 03:15:56;;;;;;;18.27;9.38;;;13.30;99.90;;;;;;5020824;28;20042;-62
2023/08/12 03:18:24;;;;;;;13.13;8.63;;;13.20;99.90;;;;;;5013121;28;20111;-65
2023/08/12 03:20:51;;;;;;;14.15;8.32;;;13.30;99.90;;;;;;5021444;28;20038;-63
2023/08/12 03:23:20;;;;;;;16.35;9.15;;;13.30;99.90;;;;;;5017471;28;20068;-65
2023/08/12 03:25:48;;;;;;;26.17;9.63;;;13.30;99.90;;;;;;5021699;28;20045;-64
2023/08/12 03:28:16;;;;;;;20.90;9.18;;;13.30;99.90;;;;;;5015332;28;20455;-65
2023/08/12 03:30:50;;;;;;;21.15;8.73;;;13.30;99.90;;;;;;5021717;28;20056;-63
2023/08/12 03:33:19;;;;;;;19.20;9.60;;;13.40;99.90;;;;;;5017497;28;20049;-63
2023/08/12 03:35:48;;;;;;;19.40;9.07;;;13.40;99.90;;;;;;5034313;28;20529;-63
2023/08/12 03:38:16;;;;;;;12.32;8.55;;;13.40;99.90;;;;;;5016383;28;20446;-64
2023/08/12 03:40:44;;;;;;;16.45;10.23;;;13.40;99.90;;;;;;5019043;28;20053;-65
2023/08/12 03:43:13;;;;;;;18.05;9.57;;;13.40;99.90;;;;;;5033181;28;20727;-63
2023/08/12 03:45:43;;;;;;;20.40;9.38;;;13.40;99.90;;;;;;5023502;28;20052;-62
2023/08/12 03:48:12;;;;;;;14.80;8.82;;;13.40;99.90;;;;;;5019097;28;20051;-65
2023/08/12 03:50:40;;;;;;;12.07;9.10;;;13.40;99.90;;;;;;5021230;28;20076;-62
2023/08/12 03:53:08;;;;;;;18.83;8.90;;;13.40;99.90;;;;;;5035491;28;20407;-65
2023/08/12 03:55:36;;;;;;;18.10;10.00;;;13.40;99.90;;;;;;5034271;28;20059;-67
2023/08/12 03:58:04;;;;;;;13.93;9.88;;;13.30;99.90;;;;;;5019668;28;20065;-61
2023/08/12 04:00:32;;;;;;;13.93;8.63;;;13.30;99.90;;;;;;5026565;28;20064;-63
2023/08/12 04:03:00;;;;;;;11.35;7.03;;;13.30;99.90;;;;;;5019458;28;20041;-61
2023/08/12 04:05:27;;;;;;;12.75;7.15;;;13.30;99.90;;;;;;5017486;28;20042;-63
2023/08/12 04:07:54;;;;;;;13.00;7.88;;;13.40;99.90;;;;;;5017644;28;20611;-66
2023/08/12 04:10:21;;;;;;;15.38;8.27;;;13.40;99.90;;;;;;5020289;28;20118;-64
2023/08/12 04:12:48;;;;;;;11.43;7.72;;;13.30;99.90;;;;;;5021984;28;20044;-62
2023/08/12 04:15:17;;;;;;;12.60;8.15;;;13.30;99.90;;;;;;5019225;28;20081;-62
2023/08/12 04:17:44;;;;;;;10.82;6.93;;;13.30;99.90;;;;;;5022254;28;20045;-65
2023/08/12 04:20:11;;;;;;;9.90;7.10;;;13.40;99.90;;;;;;5021168;28;20061;-65
2023/08/12 04:22:38;;;;;;;15.25;7.70;;;13.40;99.90;;;;;;5021421;28;20045;-65
2023/08/12 04:25:05;;;;;;;11.35;6.75;;;13.40;99.90;;;;;;5017684;28;20416;-62
2023/08/12 04:27:32;;;;;;;11.02;8.20;;;13.40;99.90;;;;;;5021577;28;20057;-68
2023/08/12 04:30:00;;;;;;;10.70;6.70;;;13.40;99.90;;;;;;5030392;28;20635;-62
2023/08/12 04:32:28;;;;;;;9.90;7.53;;;13.40;99.90;;;;;;5020900;28;20107;-66
2023/08/12 04:34:55;;;;;;;7.80;5.68;;;13.40;99.90;;;;;;5019999;28;20510;-65
2023/08/12 04:37:24;;;;;;;9.48;6.32;;;13.40;99.90;;;;;;5021746;28;20057;-65
2023/08/12 04:39:51;;;;;;;8.45;5.70;;;13.40;99.90;;;;;;5018856;28;20081;-64
2023/08/12 04:42:19;;;;;;;8.48;5.90;;;13.40;99.90;;;;;;5022178;28;20057;-67
2023/08/12 04:44:46;;;;;;;9.30;6.50;;;13.50;99.90;;;;;;5017152;28;20045;-66
2023/08/12 04:47:13;;;;;;;7.60;5.55;;;13.50;99.90;;;;;;5035244;28;20069;-62
2023/08/12 04:49:40;;;;;;;5.72;5.18;;;13.50;99.90;;;;;;5020675;28;20065;-64
2023/08/12 04:52:08;;;;;;;12.13;5.43;;;13.60;99.90;;;;;;5019151;28;20076;-62
2023/08/12 04:54:35;;;;;;;6.25;5.60;;;13.60;99.90;;;;;;5020771;28;20034;-62
2023/08/12 04:57:02;;;;;;;4.35;4.00;;;13.60;99.90;;;;;;5035058;28;20147;-65
2023/08/12 04:59:28;;;;;;;8.70;5.63;;;13.60;99.90;;;;;;5018846;28;20158;-68
2023/08/12 05:01:56;;;;;;;4.68;4.22;;;13.60;99.90;;;;;;5032938;28;20060;-64
2023/08/12 05:04:32;;;;;;;7.47;5.80;;;13.70;99.90;;;;;;5031182;28;20045;-62
2023/08/12 05:06:59;;;;;;;4.75;3.65;;;13.70;99.90;;;;;;5022215;28;20376;-66
2023/08/12 05:09:26;;;;;;;6.35;4.57;;;13.70;99.90;;;;;;5020465;28;20057;-64
2023/08/12 05:11:53;;;;;;;4.25;3.85;;;13.70;99.90;;;;;;5023627;28;20104;-62
2023/08/12 05:14:20;;;;;;;4.43;4.03;;;13.80;99.90;;;;;;5022229;28;20053;-66
2023/08/12 05:16:47;;;;;;;4.35;3.83;;;13.80;99.90;;;;;;5022577;28;20132;-62
2023/08/12 05:19:14;;;;;;;6.65;3.67;;;13.80;99.90;;;;;;5023408;28;20380;-66
2023/08/12 05:21:41;;;;;;;4.55;3.35;;;13.80;99.90;;;;;;5024496;28;20103;-62
2023/08/12 05:24:08;;;;;;;5.65;4.20;;;13.90;99.90;;;;;;5030750;28;20847;-64
2023/08/12 05:26:35;;;;;;;7.07;4.10;;;13.90;99.90;;;;;;5021539;28;20048;-63
2023/08/12 05:29:11;;;;;;;6.13;3.47;;;14.00;99.90;;;;;;5021058;28;20052;-62
2023/08/12 05:31:38;;;;;;;3.55;3.20;;;14.10;99.90;;;;;;5023767;28;20087;-66
2023/08/12 05:34:05;;;;;;;4.97;4.13;;;14.20;99.90;;;;;;5023303;28;20053;-63
2023/08/12 05:36:32;;;;;;;3.72;3.42;;;14.20;99.90;;;;;;5021948;28;20108;-65
2023/08/12 05:38:59;;;;;;;5.13;4.03;;;14.30;99.90;;;;;;5022354;28;20048;-65
2023/08/12 05:41:26;;;;;;;4.22;3.83;;;14.30;99.90;;;;;;5024462;28;20065;-66
2023/08/12 05:43:53;;;;;;;3.45;3.10;;;14.40;99.90;;;;;;5021569;28;20107;-63
2023/08/12 05:46:20;;;;;;;3.85;3.38;;;14.40;99.90;;;;;;5020505;28;20044;-64
2023/08/12 05:48:47;;;;;;;9.32;3.92;;;14.50;99.90;;;;;;5020521;28;20140;-66
2023/08/12 05:51:14;;;;;;;6.20;3.30;;;14.50;99.90;;;;;;5021514;28;20044;-64
2023/08/12 05:53:40;;;;;;;3.03;2.58;;;14.60;99.90;;;;;;5023003;28;20849;-66
2023/08/12 05:56:07;;;;;;;3.60;2.47;;;14.60;99.90;;;;;;5024092;28;20120;-63
2023/08/12 05:58:34;;;;;;;4.07;3.63;;;14.70;99.90;;;;;;5024773;28;20049;-67
2023/08/12 06:01:01;;;;;;;2.85;2.60;;;14.70;99.90;;;;;;5019029;28;20146;-65
2023/08/12 06:03:28;;;;;;;5.38;3.20;;;14.80;99.90;;;;;;5021773;28;20057;-64
2023/08/12 06:05:55;;;;;;;2.38;2.17;;;14.80;99.90;;;;;;5019395;28;20092;-68
2023/08/12 06:08:22;;;;;;;4.85;2.70;;;14.90;99.90;;;;;;5023343;28;20214;-63
2023/08/12 06:10:49;;;;;;;2.90;1.90;;;15.00;99.90;;;;;;5022015;28;20045;-65
2023/08/12 06:13:17;;;;;;;5.57;3.15;;;15.10;99.90;;;;;;5022245;28;20492;-66
2023/08/12 06:15:44;;;;;;;2.25;1.92;;;15.20;99.90;;;;;;5021249;28;20105;-65
2023/08/12 06:18:11;;;;;;;5.07;2.50;;;15.30;99.90;;;;;;5021911;28;20346;-67
2023/08/12 06:20:38;;;;;;;5.47;2.20;;;15.50;99.90;;;;;;5024127;28;20744;-68
2023/08/12 06:23:05;;;;;;;3.97;2.55;;;15.60;99.90;;;;;;5020297;28;20084;-67
2023/08/12 06:25:31;;;;;;;2.58;2.38;;;15.70;99.90;;;;;;5022411;28;20734;-67
2023/08/12 06:27:58;;;;;;;2.63;1.60;;;15.80;99.90;;;;;;5023522;28;20385;-69
2023/08/12 06:30:25;;;;;;;3.20;1.60;;;15.90;99.90;;;;;;5025309;28;20112;-63
2023/08/12 06:32:52;;;;;;;2.92;2.38;;;16.10;99.90;;;;;;5023007;28;20138;-64
2023/08/12 06:35:19;;;;;;;4.10;1.73;;;16.20;99.90;;;;;;5023226;28;20223;-64
2023/08/12 06:37:46;;;;;;;2.83;1.40;;;16.20;99.90;;;;;;5021263;28;20045;-64
2023/08/12 06:40:13;;;;;;;1.90;1.80;;;16.30;99.90;;;;;;5021933;28;20432;-65
2023/08/12 06:42:40;;;;;;;2.50;1.27;;;16.40;99.90;;;;;;5021927;28;20053;-61
2023/08/12 06:45:08;;;;;;;5.95;1.80;;;16.50;99.90;;;;;;5022167;28;20095;-64
2023/08/12 06:47:35;;;;;;;1.60;1.38;;;16.60;99.90;;;;;;5024692;28;20076;-64
2023/08/12 06:50:01;;;;;;;2.58;1.40;;;16.70;99.90;;;;;;5022758;28;20076;-68
2023/08/12 06:52:28;;;;;;;2.63;1.60;;;16.80;99.90;;;;;;5019243;28;20491;-62
2023/08/12 06:54:55;;;;;;;2.17;1.40;;;16.90;99.90;;;;;;5020320;28;20045;-66
2023/08/12 06:57:22;;;;;;;2.45;1.38;;;16.90;99.90;;;;;;5020749;28;20058;-63
2023/08/12 06:59:49;;;;;;;1.90;1.73;;;17.10;99.90;;;;;;5022418;28;20079;-62
2023/08/12 07:02:16;;;;;;;1.70;1.38;;;17.10;99.90;;;;;;5023320;28;20573;-63
2023/08/12 07:04:43;;;;;;;5.90;2.28;;;17.20;99.90;;;;;;5020330;28;20103;-62
2023/08/12 07:07:10;;;;;;;2.42;1.42;;;17.30;99.90;;;;;;5025028;28;20346;-63
2023/08/12 07:09:37;;;;;;;2.17;1.05;;;17.40;99.90;;;;;;5023703;28;20072;-67
2023/08/12 07:12:04;;;;;;;1.95;1.70;;;17.50;99.90;;;;;;5022270;28;20447;-63
2023/08/12 07:14:31;;;;;;;2.05;1.13;;;17.60;99.90;;;;;;5020823;28;20136;-67
2023/08/12 07:16:58;;;;;;;1.85;1.75;;;17.70;99.90;;;;;;5019987;28;20658;-67
2023/08/12 07:19:25;;;;;;;1.40;1.27;;;17.80;99.90;;;;;;5024616;28;20467;-62
2023/08/12 07:21:52;;;;;;;2.78;1.60;;;18.00;99.90;;;;;;5020063;28;20069;-64
2023/08/12 07:24:18;;;;;;;1.73;1.58;;;18.00;99.90;;;;;;5021880;28;20060;-67
2023/08/12 07:26:45;;;;;;;1.55;1.10;;;18.10;99.90;;;;;;5025613;28;20095;-65
2023/08/12 07:29:13;;;;;;;2.13;1.00;;;18.20;99.90;;;;;;5023696;28;20053;-62
2023/08/12 07:31:40;;;;;;;3.80;1.33;;;18.20;99.90;;;;;;5021053;28;20114;-64
2023/08/12 07:34:07;;;;;;;1.20;0.98;;;18.30;99.90;;;;;;5020688;28;20041;-66
2023/08/12 07:36:34;;;;;;;2.38;1.10;;;18.40;99.90;;;;;;5018937;28;20126;-63
2023/08/12 07:39:00;;;;;;;2.22;1.33;;;18.40;99.90;;;;;;5017129;28;20268;-69
2023/08/12 07:41:27;;;;;;;1.73;1.23;;;18.50;99.90;;;;;;5020820;28;20084;-65
2023/08/12 07:43:54;;;;;;;1.02;0.90;;;18.60;99.90;;;;;;5020538;28;20049;-64
2023/08/12 07:46:22;;;;;;;1.33;1.15;;;18.70;99.90;;;;;;5021532;28;20045;-65
2023/08/12 07:48:49;;;;;;;1.30;1.10;;;18.70;99.90;;;;;;5018182;28;20144;-67
2023/08/12 07:51:16;;;;;;;1.08;0.98;;;18.80;99.90;;;;;;5021490;28;20103;-63
2023/08/12 07:53:43;;;;;;;2.55;0.90;;;18.90;99.90;;;;;;5018447;28;20520;-62
2023/08/12 07:56:10;;;;;;;1.20;1.10;;;19.00;99.90;;;;;;5019667;28;20138;-66
2023/08/12 07:58:37;;;;;;;1.85;1.42;;;19.10;99.90;;;;;;5019022;28;20103;-63
2023/08/12 08:01:04;;;;;;;3.35;1.02;;;19.20;99.90;;;;;;5019665;28;20037;-68
2023/08/12 08:03:31;;;;;;;1.42;1.10;;;19.20;99.90;;;;;;5019343;28;20526;-64
2023/08/12 08:05:58;;;;;;;1.13;1.02;;;19.10;99.90;;;;;;5020186;28;20038;-63
2023/08/12 08:08:25;;;;;;;1.00;0.70;;;19.10;99.90;;;;;;5020919;28;20052;-66
2023/08/12 08:10:52;;;;;;;1.20;0.98;;;19.10;99.90;;;;;;5019724;28;20081;-66
2023/08/12 08:13:19;;;;;;;0.82;0.80;;;19.20;99.90;;;;;;5021305;28;20053;-62
2023/08/12 08:15:46;;;;;;;0.88;0.63;;;19.20;99.90;;;;;;5020364;28;20164;-67
2023/08/12 08:18:13;;;;;;;0.85;0.85;;;19.30;99.90;;;;;;5018312;28;20073;-63
2023/08/12 08:20:42;;;;;;;1.33;1.20;;;19.30;99.90;;;;;;5022002;28;20501;-62
2023/08/12 08:23:12;;;;;;;2.15;1.00;;;19.40;99.90;;;;;;5020952;28;20057;-69
2023/08/12 08:25:39;;;;;;;1.40;0.93;;;19.40;99.90;;;;;;5019498;28;20044;-66
2023/08/12 08:28:06;;;;;;;0.75;0.75;;;19.50;99.90;;;;;;5023563;28;20535;-62
2023/08/12 08:30:33;;;;;;;1.17;0.80;;;19.50;99.90;;;;;;5023493;28;20115;-65
2023/08/12 08:33:00;;;;;;;1.38;0.70;;;19.60;99.90;;;;;;5021347;28;20037;-68
2023/08/12 08:35:27;;;;;;;1.58;0.95;;;19.50;99.90;;;;;;5018683;28;20125;-67
2023/08/12 08:37:54;;;;;;;1.13;0.43;;;19.60;99.90;;;;;;5020722;28;20061;-65
2023/08/12 08:40:21;;;;;;;0.85;0.55;;;19.60;99.90;;;;;;5017082;28;20034;-64
2023/08/12 08:42:53;;;;;;;2.78;0.70;;;19.50;99.90;;;;;;5022638;28;20366;-62
2023/08/12 08:45:22;;;;;;;1.00;0.60;;;19.70;99.90;;;;;;5021200;28;20042;-67
2023/08/12 08:47:51;;;;;;;3.20;0.68;;;19.70;99.90;;;;;;5025981;28;20552;-66
2023/08/12 08:50:20;;;;;;;0.73;0.55;;;19.80;99.90;;;;;;5025202;28;20049;-63
2023/08/12 08:52:48;;;;;;;0.98;0.70;;;19.80;99.90;;;;;;5019579;28;20369;-66
2023/08/12 08:55:16;;;;;;;1.95;0.60;;;19.90;99.90;;;;;;5022435;28;20045;-63
2023/08/12 08:57:44;;;;;;;0.82;0.63;;;19.90;99.90;;;;;;5023451;28;20667;-65
2023/08/12 09:00:15;;;;;;;4.50;0.88;;;19.90;99.90;;;;;;5025526;28;20037;-63
2023/08/12 09:02:46;;;;;;;0.85;0.63;;;20.00;99.90;;;;;;5024831;28;20053;-65
2023/08/12 09:05:15;;;;;;;1.05;0.63;;;20.10;99.90;;;;;;5025773;28;20041;-67
2023/08/12 09:07:44;;;;;;;4.80;0.98;;;20.20;99.90;;;;;;5026106;28;20068;-65
2023/08/12 09:10:12;;;;;;;0.77;0.65;;;20.20;99.90;;;;;;5023934;28;20049;-63
2023/08/12 09:12:42;;;;;;;2.38;0.52;;;20.20;99.90;;;;;;5023491;28;20053;-67
2023/08/12 09:15:09;;;;;;;0.77;0.50;;;20.20;99.90;;;;;;5022959;28;20041;-65
2023/08/12 09:17:37;;;;;;;2.15;0.63;;;20.20;99.90;;;;;;5023238;28;20069;-64
2023/08/12 09:20:11;;;;;;;1.35;1.25;;;20.30;99.90;;;;;;5023583;28;20076;-67
2023/08/12 09:22:40;;;;;;;1.95;0.52;;;20.30;99.90;;;;;;5025880;28;20051;-67
2023/08/12 09:25:09;;;;;;;1.75;0.60;;;20.30;99.90;;;;;;5023292;28;20049;-61
2023/08/12 09:27:39;;;;;;;0.55;0.55;;;20.30;99.90;;;;;;5025081;28;20050;-68
2023/08/12 09:30:08;;;;;;;0.63;0.45;;;20.30;99.90;;;;;;5025113;28;20124;-63
2023/08/12 09:32:35;;;;;;;1.48;0.65;;;20.40;99.90;;;;;;5028370;28;20045;-64
2023/08/12 09:35:03;;;;;;;2.28;0.65;;;20.40;99.90;;;;;;5019130;28;20060;-68
2023/08/12 09:37:30;;;;;;;0.80;0.60;;;20.40;99.90;;;;;;5020971;28;20045;-65
2023/08/12 09:39:58;;;;;;;1.30;1.02;;;20.40;99.90;;;;;;5020840;28;20041;-65
2023/08/12 09:42:25;;;;;;;2.97;0.80;;;20.50;99.90;;;;;;5022505;28;20046;-67
2023/08/12 09:44:52;;;;;;;1.42;0.57;;;20.50;99.90;;;;;;5026219;28;20068;-64
2023/08/12 09:47:19;;;;;;;0.73;0.40;;;20.60;99.90;;;;;;5022952;28;20037;-64
2023/08/12 09:49:46;;;;;;;1.05;0.50;;;20.80;99.90;;;;;;5024099;28;20124;-66
2023/08/12 09:52:13;;;;;;;0.98;0.88;;;20.80;99.90;;;;;;5024912;28;20110;-66
2023/08/12 09:54:41;;;;;;;0.98;0.52;;;20.70;99.90;;;;;;5021509;28;20056;-65
2023/08/12 09:57:11;;;;;;;0.90;0.70;;;20.70;99.90;;;;;;5026661;28;20069;-69
2023/08/12 09:59:41;;;;;;;1.85;0.85;;;20.70;99.90;;;;;;5026640;28;20052;-64
2023/08/12 10:02:17;;;;;;;1.00;0.55;;;20.80;99.90;;;;;;5024511;28;20119;-65
2023/08/12 10:04:46;;;;;;;2.80;1.52;;;20.80;99.90;;;;;;5022346;28;20030;-66
2023/08/12 10:07:13;;;;;;;1.92;0.68;;;20.90;99.90;;;;;;5025831;28;20049;-63
2023/08/12 10:09:41;;;;;;;0.88;0.40;;;21.00;99.90;;;;;;5023310;28;20069;-66
2023/08/12 10:12:09;;;;;;;1.05;0.90;;;21.10;99.90;;;;;;5025173;28;20053;-62
2023/08/12 10:14:38;;;;;;;1.15;0.70;;;21.10;99.90;;;;;;5024597;28;20034;-65
2023/08/12 10:17:05;;;;;;;1.02;0.40;;;21.10;99.90;;;;;;5023431;28;20157;-65
2023/08/12 10:19:34;;;;;;;0.98;0.57;;;21.10;99.90;;;;;;5022855;28;20832;-66
2023/08/12 10:22:03;;;;;;;0.50;0.50;;;21.20;99.90;;;;;;5024546;28;20045;-65
2023/08/12 10:24:31;;;;;;;3.07;0.83;;;21.40;99.90;;;;;;5021350;28;20045;-69
2023/08/12 10:26:58;;;;;;;2.90;0.35;;;21.50;99.90;;;;;;5024630;28;20279;-62
2023/08/12 10:29:25;;;;;;;0.70;0.60;;;21.60;99.90;;;;;;5024028;28;20123;-66
2023/08/12 10:31:52;;;;;;;10.98;1.48;;;21.80;99.90;;;;;;5021223;28;20041;-70
2023/08/12 10:34:23;;;;;;;0.40;0.40;;;22.00;99.90;;;;;;5022412;28;20065;-68
2023/08/12 10:37:02;;;;;;;2.80;0.90;;;22.00;99.90;;;;;;5022094;28;20479;-65
2023/08/12 10:39:34;;;;;;;1.77;1.40;;;22.00;99.90;;;;;;5018007;28;20041;-64
2023/08/12 10:42:01;;;;;;;0.77;0.60;;;22.20;99.90;;;;;;5018710;28;20064;-68
2023/08/12 10:44:54;;;;;;;2.75;1.95;;;22.20;99.90;;;;;;5018944;28;20049;-65
2023/08/12 10:47:21;;;;;;;2.17;0.60;;;22.20;99.90;;;;;;5022270;28;20049;-64
2023/08/12 10:49:49;;;;;;;1.10;0.50;;;22.20;99.90;;;;;;5021357;28;20041;-67
2023/08/12 10:52:34;;;;;;;0.55;0.47;;;22.20;99.90;;;;;;5015258;28;20081;-68
2023/08/12 10:55:19;;;;;;;1.90;0.98;;;22.30;99.90;;;;;;5017427;28;20141;-64
2023/08/12 10:57:47;;;;;;;1.85;0.50;;;22.10;99.90;;;;;;5023511;28;20076;-64
2023/08/12 11:00:18;;;;;;;0.43;0.43;;;22.20;99.90;;;;;;5019730;28;20714;-63
2023/08/12 11:02:48;;;;;;;1.42;0.95;;;22.20;99.90;;;;;;5023286;28;20077;-65
2023/08/12 11:05:15;;;;;;;0.85;0.57;;;22.10;99.90;;;;;;5021260;28;20096;-64
2023/08/12 11:07:44;;;;;;;1.02;0.60;;;22.20;99.90;;;;;;5021449;28;20061;-65
2023/08/12 11:10:15;;;;;;;1.30;0.93;;;22.30;99.90;;;;;;5022708;28;20041;-63
2023/08/12 11:12:51;;;;;;;1.13;0.60;;;22.20;99.90;;;;;;5022954;28;20053;-67
2023/08/12 11:15:29;;;;;;;1.60;0.70;;;22.30;99.90;;;;;;5021925;28;20116;-70
2023/08/12 11:17:56;;;;;;;2.08;0.95;;;22.30;99.90;;;;;;5021988;28;20488;-68
2023/08/12 11:20:24;;;;;;;3.50;1.27;;;22.30;99.90;;;;;;5020529;28;20164;-65
2023/08/12 11:22:53;;;;;;;0.75;0.70;;;22.30;99.90;;;;;;5022361;28;20828;-62
2023/08/12 11:25:19;;;;;;;0.57;0.30;;;22.50;99.90;;;;;;5022114;28;20547;-65
2023/08/12 11:27:48;;;;;;;2.15;1.05;;;22.40;99.90;;;;;;5020066;28;20420;-65
2023/08/12 11:30:20;;;;;;;5.25;1.25;;;22.60;99.90;;;;;;5018761;28;20038;-66
2023/08/12 11:32:49;;;;;;;1.40;0.57;;;22.60;99.90;;;;;;5020997;28;20037;-66
2023/08/12 11:35:17;;;;;;;1.10;0.68;;;22.70;99.90;;;;;;5019121;28;20072;-64
2023/08/12 11:37:47;;;;;;;1.55;0.43;;;22.80;99.90;;;;;;5019035;28;20041;-63
2023/08/12 11:40:16;;;;;;;1.38;0.52;;;22.80;99.90;;;;;;5019847;28;20148;-69
2023/08/12 11:42:45;;;;;;;3.23;0.90;;;22.80;99.90;;;;;;5015992;28;20077;-65
2023/08/12 11:45:14;;;;;;;2.45;0.93;;;22.70;99.90;;;;;;5019769;28;20057;-66
2023/08/12 11:47:41;;;;;;;0.68;0.50;;;22.80;99.90;;;;;;5022753;28;20143;-63
2023/08/12 11:50:10;;;;;;;0.50;0.50;;;22.80;99.90;;;;;;5018633;28;20812;-62
2023/08/12 11:52:38;;;;;;;0.85;0.68;;;22.70;99.90;;;;;;5023262;28;20118;-66
2023/08/12 11:55:06;;;;;;;2.50;0.85;;;22.60;99.90;;;;;;5017897;28;20507;-69
2023/08/12 11:57:36;;;;;;;0.75;0.63;;;22.70;99.90;;;;;;5020641;28;20567;-67
2023/08/12 12:00:18;;;;;;;0.77;0.70;;;22.90;99.90;;;;;;5020543;28;20048;-65
2023/08/12 12:02:45;;;;;;;0.77;0.63;;;23.00;99.90;;;;;;5017983;28;20147;-65
2023/08/12 12:05:13;;;;;;;1.88;0.60;;;23.00;99.90;;;;;;5019341;28;20044;-65
2023/08/12 12:07:41;;;;;;;6.70;1.65;;;23.10;99.90;;;;;;5021629;28;20204;-65
2023/08/12 12:10:08;;;;;;;1.25;0.68;;;23.20;99.90;;;;;;5021661;28;20041;-66
2023/08/12 12:12:36;;;;;;;3.75;1.00;;;23.20;99.90;;;;;;5020190;28;20461;-68
2023/08/12 12:15:04;;;;;;;1.08;0.82;;;23.30;99.90;;;;;;5020412;28;20077;-68
2023/08/12 12:17:32;;;;;;;0.85;0.63;;;23.30;99.90;;;;;;5020640;28;20045;-67
2023/08/12 12:20:00;;;;;;;1.50;0.60;;;23.20;99.90;;;;;;5021280;28;20083;-65
2023/08/12 12:22:30;;;;;;;1.17;0.60;;;23.20;99.90;;;;;;5022430;28;20178;-63
2023/08/12 12:25:06;;;;;;;1.52;0.70;;;23.40;99.90;;;;;;5014450;28;20049;-67
2023/08/12 12:27:33;;;;;;;1.17;0.80;;;23.40;99.90;;;;;;5019747;28;20056;-66
2023/08/12 12:30:01;;;;;;;0.43;0.40;;;23.50;99.90;;;;;;5020465;28;20068;-66
2023/08/12 12:32:29;;;;;;;1.95;0.93;;;23.50;99.90;;;;;;5023987;28;20157;-64
2023/08/12 12:34:56;;;;;;;1.98;0.70;;;23.50;99.90;;;;;;5017434;28;20099;-68
2023/08/12 12:37:22;;;;;;;1.60;1.10;;;23.30;99.90;;;;;;5022719;28;20042;-63
2023/08/12 12:39:49;;;;;;;2.03;0.60;;;23.40;99.90;;;;;;5017613;28;20128;-63
2023/08/12 12:42:16;;;;;;;1.25;0.80;;;23.60;99.90;;;;;;5018865;28;20050;-69
2023/08/12 12:44:43;;;;;;;1.88;0.85;;;23.60;99.90;;;;;;5020531;28;20376;-66
2023/08/12 12:47:12;;;;;;;1.38;0.70;;;23.50;99.90;;;;;;5018294;28;20128;-64